Accueil
METAR-TAF:

METAR-TAF

Aéroports :

Aéroport d'Oujda-Angads

Oujda, Maroc

latitude: 34-47N, longitude: 001-56W, altitude: 468 m

Observation

Le bulletin a été fait il y a 30 minutes, à 05:00 UTC
Vent 1 kt de direction variable
Température 6°C
Humidité 100%
Pression 1024 hPa
Visibilité: 0200 m
brouillard

METAR: GMFO 090500Z VRB01KT 0200 R06/0600D FG VV001 06/06 Q1024 NOSIG

Heure: 06:30 (05:30 UTC)

Prévision

Le bulletin a été fait il y a 6 heures et 30 minutes, à 23:00 UTC
Prévision valable du 09 à 00 UTC au 10 à 06 UTC
Vent 4 kt de sud
Visibilité: 0300 m
Quelques nuages à une hauteur de 200 ft
brouillard
Probabilité 40% :
Temporairement
du 09 à 03 UTC au 09 à 09 UTC
Visibilité: 3000 m
brume
Probabilité 40% :
Temporairement
du 09 à 14 UTC au 09 à 19 UTC
Vent 10 kt de nord/nord-est

TAF: GMFO 082300Z 0900/1006 17004KT 0300 FG FEW002 PROB40 TEMPO 0903/0909 3000 BR PROB40 TEMPO 0914/0919 02010KT

Observations et prévisions météorologiques de plus de 4000 aéroports (messages METAR et TAF).

Les stations disponibles sont représentées par des disques jaunes et rouges sur la carte.

Passer la souris dessus pour voir le nom de la station.

Cliquer dessus pour voir les observations et prévisions météorologiques.

Pour changer de carte: cliquez sur les boutons verts avec une croix noire pour zoomer, sur le bouton vert avec un tiret pour effectuer un zoom arrière, ou sur les flèches vertes pour les cartes adjacentes.


METAR-TAF: